createdAt,value
2023-02-14T00:04:01.997Z,1.53
2023-02-14T00:09:05.291Z,2.07
2023-02-14T00:14:26.346Z,0.90
2023-02-14T00:19:28.641Z,1.40
2023-02-14T00:24:30.749Z,0.87
2023-02-14T00:29:33.444Z,1.27
2023-02-14T00:34:37.018Z,0.77
2023-02-14T00:39:39.116Z,1.00
2023-02-14T00:44:41.474Z,1.20
2023-02-14T00:49:43.664Z,1.50
2023-02-14T00:54:45.813Z,1.20
2023-02-14T00:59:49.332Z,1.13
2023-02-14T01:04:51.474Z,0.93
2023-02-14T01:09:53.647Z,1.00
2023-02-14T01:14:56.129Z,0.80
2023-02-14T01:19:58.311Z,0.90
2023-02-14T01:25:00.664Z,0.87
2023-02-14T01:30:06.145Z,1.47
2023-02-14T01:35:09.732Z,1.13
2023-02-14T01:40:13.613Z,0.80
2023-02-14T01:45:21.060Z,1.30
2023-02-14T01:50:29.392Z,1.20
2023-02-14T01:55:39.490Z,1.27
2023-02-14T02:00:59.002Z,1.10
2023-02-14T02:06:48.040Z,1.10
2023-02-14T02:11:50.248Z,0.90
2023-02-14T02:17:12.062Z,1.33
2023-02-14T02:22:35.606Z,1.00
2023-02-14T02:28:14.958Z,1.07
2023-02-14T02:33:56.758Z,0.87
2023-02-14T02:39:05.329Z,0.87
2023-02-14T02:44:35.406Z,0.97
2023-02-14T02:50:23.275Z,1.00
2023-02-14T02:56:06.931Z,1.30
2023-02-14T03:01:13.972Z,1.00
2023-02-14T03:06:16.206Z,1.00
2023-02-14T03:11:21.178Z,1.30
2023-02-14T03:16:35.270Z,0.80
2023-02-14T03:21:52.651Z,1.10
2023-02-14T03:27:17.302Z,1.00
2023-02-14T03:32:29.621Z,1.00
2023-02-14T03:37:47.744Z,0.70
2023-02-14T03:42:53.777Z,0.70
2023-02-14T03:47:58.974Z,1.13
2023-02-14T03:53:01.890Z,1.10
2023-02-14T03:58:08.544Z,0.90
2023-02-14T04:03:12.651Z,0.80
2023-02-14T04:08:25.466Z,0.50
2023-02-14T04:13:28.182Z,0.60
2023-02-14T04:18:48.687Z,0.67
2023-02-14T04:23:50.853Z,0.47
2023-02-14T04:28:52.986Z,0.30
2023-02-14T04:33:55.247Z,0.60
2023-02-14T04:38:57.409Z,0.20
2023-02-14T04:43:59.524Z,0.50
2023-02-14T04:49:01.774Z,0.40
2023-02-14T04:54:03.890Z,0.30
2023-02-14T04:59:06.400Z,0.50
2023-02-14T05:04:08.942Z,0.50
2023-02-14T05:09:11.112Z,0.37
2023-02-14T05:14:14.125Z,0.60
2023-02-14T05:19:16.419Z,0.40
2023-02-14T05:24:18.904Z,0.60
2023-02-14T05:29:21.083Z,0.70
2023-02-14T05:34:23.258Z,1.00
2023-02-14T05:39:25.494Z,0.93
2023-02-14T05:44:27.649Z,0.80
2023-02-14T05:49:29.811Z,0.80
2023-02-14T05:54:31.996Z,1.20
2023-02-14T05:59:34.196Z,1.10
2023-02-14T06:04:36.440Z,1.20
2023-02-14T06:09:38.660Z,0.80
2023-02-14T06:14:43.086Z,0.90
2023-02-14T06:19:45.229Z,0.90
2023-02-14T06:24:47.400Z,0.97
2023-02-14T06:29:49.840Z,0.90
2023-02-14T06:34:52.016Z,0.90
2023-02-14T06:39:54.187Z,1.00
2023-02-14T06:44:56.339Z,1.00
2023-02-14T06:50:00.217Z,1.60
2023-02-14T06:55:02.602Z,0.83
2023-02-14T07:00:06.745Z,0.70
2023-02-14T07:05:09.162Z,0.70
2023-02-14T07:10:11.844Z,0.70
2023-02-14T07:15:14.798Z,0.80
2023-02-14T07:20:18.478Z,0.80
2023-02-14T07:25:20.924Z,0.90
2023-02-14T07:30:23.263Z,0.67
2023-02-14T07:35:25.668Z,0.70
2023-02-14T07:40:30.086Z,0.60
2023-02-14T07:45:32.250Z,0.60
2023-02-14T07:50:34.477Z,0.60
2023-02-14T07:55:36.858Z,0.90
2023-02-14T08:00:39.077Z,1.00
2023-02-14T08:05:41.973Z,1.00
2023-02-14T08:10:44.171Z,0.80
2023-02-14T08:16:04.900Z,0.80
2023-02-14T08:21:09.476Z,1.33
2023-02-14T08:26:11.689Z,0.70
2023-02-14T08:31:35.811Z,0.80
2023-02-14T08:36:38.685Z,0.73
2023-02-14T08:41:40.870Z,0.93
2023-02-14T08:46:43.165Z,0.77
2023-02-14T08:51:45.429Z,1.23
2023-02-14T08:56:47.772Z,0.60
2023-02-14T09:01:49.942Z,0.73
2023-02-14T09:06:52.175Z,0.80
2023-02-14T09:11:57.538Z,0.70
2023-02-14T09:17:01.771Z,0.63
2023-02-14T09:22:08.563Z,0.80
2023-02-14T09:27:11.208Z,0.90
2023-02-14T09:32:13.461Z,0.80
2023-02-14T09:37:35.169Z,0.60
2023-02-14T09:42:51.976Z,0.70
2023-02-14T09:47:58.924Z,0.70
2023-02-14T09:53:32.086Z,0.87
2023-02-14T09:58:46.887Z,0.63
2023-02-14T10:04:10.500Z,1.20
2023-02-14T10:09:41.972Z,0.57
2023-02-14T10:14:46.629Z,0.60
2023-02-14T10:19:55.404Z,0.73
2023-02-14T10:25:08.007Z,0.60
2023-02-14T10:30:21.778Z,0.50
2023-02-14T10:35:54.324Z,0.50
2023-02-14T10:41:22.770Z,0.80
2023-02-14T10:46:34.486Z,0.50
2023-02-14T10:51:49.831Z,0.50
2023-02-14T10:57:27.534Z,0.50
2023-02-14T11:02:41.648Z,0.50
2023-02-14T11:07:44.943Z,0.83
2023-02-14T11:12:47.208Z,0.80
2023-02-14T11:17:49.650Z,0.40
2023-02-14T11:22:51.915Z,0.57
2023-02-14T11:28:01.384Z,0.43
2023-02-14T11:33:04.994Z,0.40
2023-02-14T11:38:40.284Z,0.60
2023-02-14T11:43:44.843Z,0.43
2023-02-14T11:49:07.578Z,0.40
2023-02-14T11:54:14.690Z,0.43
2023-02-14T11:59:28.853Z,0.50
2023-02-14T12:04:45.646Z,0.87
2023-02-14T12:09:49.687Z,0.77
2023-02-14T12:14:51.937Z,0.30
2023-02-14T12:20:16.234Z,0.70
2023-02-14T12:25:46.073Z,0.40
2023-02-14T12:30:49.812Z,0.73
2023-02-14T12:35:58.016Z,1.00
2023-02-14T12:41:09.991Z,0.87
2023-02-14T12:46:33.792Z,0.70
2023-02-14T12:51:58.460Z,0.70
2023-02-14T12:57:42.512Z,0.60
2023-02-14T13:03:09.888Z,0.47
2023-02-14T13:08:15.122Z,0.53
2023-02-14T13:13:27.743Z,0.40
2023-02-14T13:18:37.725Z,0.40
2023-02-14T13:23:40.969Z,0.30
2023-02-14T13:29:05.392Z,0.50
2023-02-14T13:34:15.573Z,0.30
2023-02-14T13:39:32.032Z,0.40
2023-02-14T13:44:43.221Z,0.43
2023-02-14T13:49:51.960Z,0.30
2023-02-14T13:55:01.783Z,0.20
2023-02-14T14:00:17.430Z,0.30
2023-02-14T14:05:39.816Z,1.10
2023-02-14T14:10:55.876Z,0.37
2023-02-14T14:16:35.219Z,0.37
2023-02-14T14:21:39.445Z,0.30
2023-02-14T14:26:56.802Z,0.30
2023-02-14T14:31:59.095Z,0.57
2023-02-14T14:37:21.106Z,0.40
2023-02-14T14:42:25.222Z,0.43
2023-02-14T14:47:47.871Z,0.67
2023-02-14T14:52:52.070Z,0.70
2023-02-14T14:58:00.516Z,1.03
2023-02-14T15:03:23.975Z,0.97
2023-02-14T15:08:31.070Z,1.10
2023-02-14T15:13:58.543Z,1.00
2023-02-14T15:19:09.824Z,1.20
2023-02-14T15:24:17.589Z,1.20
2023-02-14T15:29:26.188Z,1.30
2023-02-14T15:34:31.944Z,0.97
2023-02-14T15:39:37.951Z,0.90
2023-02-14T15:44:40.102Z,1.10
2023-02-14T15:49:44.093Z,1.30
2023-02-14T15:54:47.650Z,1.00
2023-02-14T15:59:49.962Z,1.33
2023-02-14T16:04:52.076Z,1.50
2023-02-14T16:10:32.585Z,1.60
2023-02-14T16:15:39.428Z,1.63
2023-02-14T16:20:45.575Z,2.13
2023-02-14T16:25:48.123Z,1.20
2023-02-14T16:30:58.316Z,1.60
2023-02-14T16:36:06.623Z,1.53
2023-02-14T16:41:17.119Z,1.77
2023-02-14T16:46:22.202Z,1.73
2023-02-14T16:51:29.106Z,1.67
2023-02-14T16:56:42.758Z,2.10
2023-02-14T17:01:45.158Z,2.53
2023-02-14T17:06:51.774Z,1.60
2023-02-14T17:11:57.124Z,1.50
2023-02-14T17:17:00.091Z,1.60
2023-02-14T17:22:03.990Z,0.90
2023-02-14T17:27:08.083Z,0.60
2023-02-14T17:32:14.092Z,0.40
2023-02-14T17:37:19.121Z,0.43
2023-02-14T17:42:21.923Z,0.73
2023-02-14T17:47:24.130Z,0.57
2023-02-14T17:52:28.769Z,0.20
2023-02-14T17:57:30.975Z,0.43
2023-02-14T18:02:33.291Z,0.53
2023-02-14T18:07:36.024Z,0.50
2023-02-14T18:12:38.333Z,0.40
2023-02-14T18:17:40.525Z,0.40
2023-02-14T18:22:42.978Z,0.40
2023-02-14T18:27:45.192Z,0.90
2023-02-14T18:32:48.340Z,1.13
2023-02-14T18:37:50.511Z,0.87
2023-02-14T18:42:52.977Z,0.70
2023-02-14T18:47:55.297Z,1.10
2023-02-14T18:52:57.459Z,0.87
2023-02-14T18:57:59.646Z,1.10
2023-02-14T19:03:02.001Z,0.87
2023-02-14T19:08:05.960Z,1.83
2023-02-14T19:13:08.154Z,1.60
2023-02-14T19:18:31.676Z,1.43
2023-02-14T19:23:39.206Z,1.53
2023-02-14T19:28:42.172Z,1.57
2023-02-14T19:33:46.045Z,1.40
2023-02-14T19:38:51.501Z,2.00
2023-02-14T19:43:57.188Z,1.17
2023-02-14T19:48:59.786Z,2.13
2023-02-14T19:54:05.816Z,1.13
2023-02-14T19:59:09.381Z,0.97
2023-02-14T20:04:14.959Z,1.33
2023-02-14T20:09:18.130Z,1.47
2023-02-14T20:14:29.389Z,1.00
2023-02-14T20:19:33.865Z,1.20
2023-02-14T20:24:36.137Z,1.07
2023-02-14T20:29:39.903Z,1.30
2023-02-14T20:34:43.230Z,1.10
2023-02-14T20:39:45.436Z,1.30
2023-02-14T20:44:50.722Z,1.00
2023-02-14T20:49:52.864Z,0.80
2023-02-14T20:54:55.023Z,1.03
2023-02-14T20:59:57.127Z,0.67
2023-02-14T21:05:00.453Z,1.40
2023-02-14T21:10:07.503Z,0.53
2023-02-14T21:15:11.556Z,0.83
2023-02-14T21:20:15.340Z,0.83
2023-02-14T21:25:17.512Z,0.80
2023-02-14T21:30:19.896Z,0.60
2023-02-14T21:35:22.190Z,0.60
2023-02-14T21:40:27.292Z,0.60
2023-02-14T21:45:55.686Z,0.60
2023-02-14T21:50:58.067Z,0.70
2023-02-14T21:56:09.802Z,0.73
2023-02-14T22:01:20.344Z,0.50
2023-02-14T22:06:26.554Z,0.60
2023-02-14T22:11:29.297Z,1.07
2023-02-14T22:16:31.628Z,0.57
2023-02-14T22:21:34.119Z,0.57
2023-02-14T22:26:41.106Z,0.47
2023-02-14T22:31:44.048Z,0.60
2023-02-14T22:36:46.446Z,0.53
2023-02-14T22:41:49.492Z,0.40
2023-02-14T22:46:51.786Z,0.70
2023-02-14T22:51:54.157Z,0.83
2023-02-14T22:56:56.421Z,0.80
2023-02-14T23:01:58.643Z,0.60
2023-02-14T23:07:01.088Z,0.50
2023-02-14T23:12:28.174Z,0.40
2023-02-14T23:17:52.590Z,0.57
2023-02-14T23:22:54.957Z,0.43
2023-02-14T23:28:15.556Z,0.50
2023-02-14T23:33:18.525Z,0.40
2023-02-14T23:38:21.050Z,0.70
2023-02-14T23:43:23.298Z,0.50
2023-02-14T23:48:25.497Z,0.40
2023-02-14T23:53:27.639Z,0.70
2023-02-14T23:58:29.826Z,0.43
